createdAt,value
2018-08-19T00:02:08.791Z,13.68
2018-08-19T00:04:38.574Z,13.62
2018-08-19T00:07:07.957Z,12.63
2018-08-19T00:09:36.898Z,9.70
2018-08-19T00:12:06.302Z,11.15
2018-08-19T00:14:36.186Z,10.05
2018-08-19T00:17:05.432Z,9.33
2018-08-19T00:19:35.066Z,12.05
2018-08-19T00:22:03.980Z,9.58
2018-08-19T00:24:33.240Z,12.00
2018-08-19T00:27:02.183Z,9.43
2018-08-19T00:29:36.922Z,10.53
2018-08-19T00:32:07.056Z,11.97
2018-08-19T00:34:36.539Z,13.90
2018-08-19T00:37:06.043Z,9.80
2018-08-19T00:39:35.374Z,11.25
2018-08-19T00:42:04.744Z,10.72
2018-08-19T00:44:34.088Z,11.65
2018-08-19T00:47:03.021Z,13.60
2018-08-19T00:49:32.155Z,11.97
2018-08-19T00:52:03.025Z,10.43
2018-08-19T00:54:32.627Z,13.05
2018-08-19T00:57:01.812Z,9.70
2018-08-19T00:59:32.167Z,12.05
2018-08-19T01:02:01.151Z,12.73
2018-08-19T01:04:30.092Z,10.68
2018-08-19T01:06:59.847Z,10.30
2018-08-19T01:09:30.795Z,10.45
2018-08-19T01:12:00.137Z,10.82
2018-08-19T01:14:29.067Z,11.18
2018-08-19T01:16:58.254Z,9.40
2018-08-19T01:19:27.165Z,7.53
2018-08-19T01:21:56.291Z,8.43
2018-08-19T01:24:25.236Z,8.80
2018-08-19T01:26:54.651Z,12.33
2018-08-19T01:29:33.835Z,11.28
2018-08-19T01:32:10.815Z,9.45
2018-08-19T01:34:42.474Z,9.55
2018-08-19T01:37:12.056Z,14.10
2018-08-19T01:39:41.300Z,13.13
2018-08-19T01:42:10.214Z,12.30
2018-08-19T01:44:39.136Z,10.05
2018-08-19T01:47:08.388Z,9.23
2018-08-19T01:49:37.291Z,8.68
2018-08-19T01:52:06.664Z,10.05
2018-08-19T01:54:35.586Z,10.93
2018-08-19T01:57:04.495Z,9.40
2018-08-19T01:59:34.515Z,9.85
2018-08-19T02:02:05.869Z,7.92
2018-08-19T02:04:40.912Z,8.58
2018-08-19T02:07:10.156Z,10.45
2018-08-19T02:09:53.317Z,11.55
2018-08-19T02:12:22.225Z,11.35
2018-08-19T02:14:51.148Z,12.65
2018-08-19T02:17:20.067Z,11.12
2018-08-19T02:19:48.991Z,10.32
2018-08-19T02:22:17.901Z,9.95
2018-08-19T02:24:46.807Z,10.60
2018-08-19T02:27:15.731Z,10.32
2018-08-19T02:29:44.602Z,12.30
2018-08-19T02:32:13.492Z,9.50
2018-08-19T02:34:44.221Z,7.83
2018-08-19T02:37:15.254Z,9.78
2018-08-19T02:39:46.955Z,13.93
2018-08-19T02:42:23.943Z,14.13
2018-08-19T02:44:55.238Z,10.40
2018-08-19T02:47:24.184Z,11.88
2018-08-19T02:49:53.378Z,11.63
2018-08-19T02:52:29.974Z,9.73
2018-08-19T02:55:00.282Z,10.68
2018-08-19T02:57:29.930Z,11.10
2018-08-19T03:00:00.276Z,12.30
2018-08-19T03:02:32.758Z,10.08
2018-08-19T03:05:03.666Z,8.85
2018-08-19T03:07:33.069Z,10.78
2018-08-19T03:10:07.691Z,11.03
2018-08-19T03:12:36.699Z,13.15
2018-08-19T03:15:08.772Z,11.55
2018-08-19T03:17:38.123Z,12.53
2018-08-19T03:20:10.225Z,10.93
2018-08-19T03:22:39.457Z,11.43
2018-08-19T03:25:09.007Z,11.33
2018-08-19T03:27:38.535Z,12.18
2018-08-19T03:30:13.002Z,11.95
2018-08-19T03:33:13.283Z,11.15
2018-08-19T03:35:42.187Z,12.73
2018-08-19T03:38:14.123Z,10.38
2018-08-19T03:40:43.148Z,11.30
2018-08-19T03:43:12.356Z,11.85
2018-08-19T03:45:41.341Z,15.50
2018-08-19T03:48:10.255Z,13.13
2018-08-19T03:50:39.193Z,12.03
2018-08-19T03:53:08.161Z,11.88
2018-08-19T03:55:38.043Z,13.05
2018-08-19T03:58:09.339Z,13.43
2018-08-19T04:00:42.170Z,11.93
2018-08-19T04:03:19.547Z,13.40
2018-08-19T04:05:52.849Z,10.95
2018-08-19T04:08:22.099Z,11.20
2018-08-19T04:10:50.990Z,12.23
2018-08-19T04:13:30.924Z,11.73
2018-08-19T04:16:00.908Z,12.58
2018-08-19T04:18:34.174Z,12.15
2018-08-19T04:21:07.039Z,12.82
2018-08-19T04:23:36.404Z,11.48
2018-08-19T04:26:05.781Z,12.98
2018-08-19T04:28:37.298Z,14.73
2018-08-19T04:31:12.645Z,12.00
2018-08-19T04:33:50.044Z,12.23
2018-08-19T04:36:21.295Z,14.55
2018-08-19T04:38:50.245Z,13.83
2018-08-19T04:41:19.669Z,15.53
2018-08-19T04:43:48.820Z,12.93
2018-08-19T04:46:17.699Z,13.25
2018-08-19T04:48:47.698Z,13.13
2018-08-19T04:51:16.606Z,12.80
2018-08-19T04:53:45.519Z,15.78
2018-08-19T04:56:14.460Z,12.07
2018-08-19T04:58:43.387Z,12.03
2018-08-19T05:01:12.848Z,12.83
2018-08-19T05:03:43.871Z,10.32
2018-08-19T05:06:13.081Z,14.55
2018-08-19T05:08:42.041Z,17.82
2018-08-19T05:11:11.285Z,15.70
2018-08-19T05:13:40.201Z,13.43
2018-08-19T05:16:09.086Z,13.95
2018-08-19T05:18:37.971Z,15.03
2018-08-19T05:21:14.605Z,16.15
2018-08-19T05:23:43.523Z,17.75
2018-08-19T05:26:12.523Z,15.98
2018-08-19T05:28:41.621Z,16.62
2018-08-19T05:31:10.502Z,17.80
2018-08-19T05:33:42.075Z,14.83
2018-08-19T05:36:10.977Z,13.72
2018-08-19T05:38:39.929Z,15.10
2018-08-19T05:41:10.296Z,15.25
2018-08-19T05:43:39.200Z,16.50
2018-08-19T05:46:08.428Z,13.65
2018-08-19T05:48:37.437Z,19.40
2018-08-19T05:51:06.400Z,16.80
2018-08-19T05:53:35.305Z,13.60
2018-08-19T05:56:04.244Z,12.55
2018-08-19T05:58:33.169Z,18.70
2018-08-19T06:01:01.627Z,16.57
2018-08-19T06:03:30.734Z,15.75
2018-08-19T06:06:00.099Z,13.50
2018-08-19T06:08:29.035Z,17.95
2018-08-19T06:10:57.955Z,17.87
2018-08-19T06:13:28.790Z,15.23
2018-08-19T06:15:57.762Z,14.30
2018-08-19T06:18:28.239Z,14.58
2018-08-19T06:20:57.446Z,15.53
2018-08-19T06:23:26.362Z,12.90
2018-08-19T06:25:55.332Z,18.82
2018-08-19T06:28:24.263Z,19.67
2018-08-19T06:30:53.224Z,20.10
2018-08-19T06:33:22.132Z,17.20
2018-08-19T06:35:51.075Z,19.10
2018-08-19T06:38:19.997Z,14.98
2018-08-19T06:40:48.941Z,18.30
2018-08-19T06:43:17.935Z,19.23
2018-08-19T06:45:46.996Z,16.17
2018-08-19T06:48:15.903Z,16.90
2018-08-19T06:50:44.850Z,18.73
2018-08-19T06:53:19.091Z,18.57
2018-08-19T06:55:48.137Z,18.60
2018-08-19T06:58:17.457Z,17.82
2018-08-19T07:01:18.648Z,18.87
2018-08-19T07:03:51.781Z,21.68
2018-08-19T07:06:20.898Z,15.88
2018-08-19T07:08:50.103Z,19.87
2018-08-19T07:11:19.088Z,20.88
2018-08-19T07:13:50.120Z,21.57
2018-08-19T07:16:19.852Z,24.23
2018-08-19T07:18:49.503Z,19.92
2018-08-19T07:21:18.559Z,21.10
2018-08-19T07:23:47.533Z,18.87
2018-08-19T07:26:16.715Z,18.17
2018-08-19T07:28:45.674Z,23.40
2018-08-19T07:31:14.630Z,19.60
2018-08-19T07:33:43.671Z,21.60
2018-08-19T07:36:12.608Z,17.75
2018-08-19T07:38:41.794Z,21.62
2018-08-19T07:41:10.800Z,18.87
2018-08-19T07:43:39.802Z,20.35
2018-08-19T07:46:08.747Z,22.22
2018-08-19T07:48:38.098Z,19.85
2018-08-19T07:51:07.083Z,18.95
2018-08-19T07:53:36.055Z,20.62
2018-08-19T07:56:05.365Z,17.87
2018-08-19T07:58:41.148Z,18.62
2018-08-19T08:01:09.883Z,17.37
2018-08-19T08:03:38.870Z,18.62
2018-08-19T08:06:08.099Z,20.70
2018-08-19T08:08:37.380Z,20.55
2018-08-19T08:11:06.372Z,17.55
2018-08-19T08:13:35.363Z,24.50
2018-08-19T08:16:04.434Z,20.77
2018-08-19T08:18:33.447Z,22.13
2018-08-19T08:21:08.988Z,18.57
2018-08-19T08:23:38.294Z,19.20
2018-08-19T08:26:07.255Z,20.72
2018-08-19T08:28:36.336Z,23.00
2018-08-19T08:31:08.402Z,21.23
2018-08-19T08:33:40.313Z,21.37
2018-08-19T08:36:10.247Z,22.40
2018-08-19T08:44:22.345Z,17.32
2018-08-19T08:46:51.461Z,23.27
2018-08-19T08:49:20.355Z,22.15
2018-08-19T08:51:49.282Z,21.35
2018-08-19T08:54:18.201Z,20.10
2018-08-19T08:56:47.660Z,24.12
2018-08-19T08:59:16.575Z,23.25
2018-08-19T09:01:45.180Z,28.00
2018-08-19T09:04:14.084Z,24.65
2018-08-19T09:06:43.371Z,24.18
2018-08-19T09:09:12.300Z,25.43
2018-08-19T09:11:41.268Z,23.27
2018-08-19T09:14:10.172Z,21.35
2018-08-19T09:16:39.172Z,20.97
2018-08-19T09:19:08.542Z,19.67
2018-08-19T09:21:37.789Z,18.15
2018-08-19T09:24:06.840Z,18.00
2018-08-19T09:26:35.830Z,19.62
2018-08-19T09:29:05.265Z,20.30
2018-08-19T09:31:34.387Z,19.98
2018-08-19T09:34:03.946Z,20.50
2018-08-19T09:36:33.398Z,21.12
2018-08-19T09:39:02.826Z,19.23
2018-08-19T09:41:32.211Z,20.70
2018-08-19T09:44:01.234Z,16.52
2018-08-19T09:46:30.843Z,18.65
2018-08-19T09:48:59.846Z,21.23
2018-08-19T09:51:28.915Z,20.05
2018-08-19T09:53:58.004Z,20.02
2018-08-19T09:56:32.485Z,21.27
2018-08-19T09:59:05.604Z,19.95
2018-08-19T10:01:40.481Z,17.63
2018-08-19T10:04:29.383Z,19.75
2018-08-19T10:07:11.245Z,15.35
2018-08-19T10:09:40.450Z,16.42
2018-08-19T10:12:10.046Z,16.65
2018-08-19T10:14:39.085Z,16.27
2018-08-19T10:17:08.544Z,13.75
2018-08-19T10:19:37.670Z,16.90
2018-08-19T10:22:06.655Z,12.70
2018-08-19T10:24:35.605Z,15.93
2018-08-19T10:27:07.732Z,11.12
2018-08-19T10:29:36.838Z,13.03
2018-08-19T10:32:05.913Z,12.80
2018-08-19T10:34:36.132Z,14.43
2018-08-19T10:37:05.773Z,15.32
2018-08-19T10:39:34.752Z,13.30
2018-08-19T10:42:17.877Z,13.35
2018-08-19T10:44:49.049Z,15.43
2018-08-19T10:47:18.704Z,13.83
2018-08-19T10:49:54.520Z,14.13
2018-08-19T10:52:31.365Z,13.75
2018-08-19T10:55:01.484Z,13.70
2018-08-19T10:57:30.936Z,13.25
2018-08-19T11:00:00.229Z,13.22
2018-08-19T11:02:29.417Z,12.83
2018-08-19T11:04:59.643Z,14.30
2018-08-19T11:07:28.773Z,10.32
2018-08-19T11:10:19.979Z,11.18
2018-08-19T11:12:52.668Z,10.25
2018-08-19T11:15:29.763Z,7.15
2018-08-19T11:18:03.227Z,7.12
2018-08-19T11:20:38.214Z,6.75
2018-08-19T11:23:11.349Z,4.97
2018-08-19T11:25:40.277Z,6.42
2018-08-19T11:28:22.992Z,3.52
2018-08-19T11:30:52.091Z,4.47
2018-08-19T11:33:32.258Z,5.92
2018-08-19T11:36:01.148Z,4.85
2018-08-19T11:38:30.133Z,5.37
2018-08-19T11:41:00.960Z,6.40
2018-08-19T11:43:30.077Z,5.70
2018-08-19T11:45:59.183Z,5.40
2018-08-19T11:48:28.078Z,7.40
2018-08-19T11:50:56.989Z,5.50
2018-08-19T11:53:25.882Z,8.90
2018-08-19T11:55:54.805Z,10.30
2018-08-19T11:58:35.626Z,7.72
2018-08-19T12:01:05.710Z,6.10
2018-08-19T12:03:51.362Z,6.33
2018-08-19T12:06:21.189Z,7.00
2018-08-19T12:08:50.078Z,6.92
2018-08-19T12:11:20.125Z,8.03
2018-08-19T12:13:53.070Z,8.30
2018-08-19T12:16:23.907Z,7.62
2018-08-19T12:18:53.218Z,6.22
2018-08-19T12:21:23.141Z,9.93
2018-08-19T12:24:06.369Z,8.20
2018-08-19T12:26:39.533Z,7.25
2018-08-19T12:29:08.480Z,7.70
2018-08-19T12:31:37.615Z,7.42
2018-08-19T12:34:06.612Z,8.50
2018-08-19T12:36:35.513Z,7.45
2018-08-19T12:39:06.453Z,6.45
2018-08-19T12:41:40.218Z,7.10
2018-08-19T12:44:09.100Z,5.92
2018-08-19T12:46:38.050Z,5.97
2018-08-19T12:49:06.979Z,6.50
2018-08-19T12:51:35.872Z,5.20
2018-08-19T12:54:04.820Z,7.03
2018-08-19T12:56:33.836Z,6.37
2018-08-19T12:59:02.778Z,7.67
2018-08-19T13:01:31.432Z,6.83
2018-08-19T13:04:00.382Z,6.00
2018-08-19T13:06:29.267Z,6.28
2018-08-19T13:08:58.194Z,6.95
2018-08-19T13:11:27.228Z,7.22
2018-08-19T13:13:56.118Z,6.75
2018-08-19T13:16:25.096Z,7.03
2018-08-19T13:18:54.058Z,8.68
2018-08-19T13:21:23.814Z,7.12
2018-08-19T13:23:52.751Z,7.62
2018-08-19T13:26:21.683Z,8.65
2018-08-19T13:28:54.798Z,7.50
2018-08-19T13:31:29.200Z,8.85
2018-08-19T13:33:58.260Z,7.17
2018-08-19T13:36:27.266Z,10.85
2018-08-19T13:38:56.174Z,8.60
2018-08-19T13:41:25.058Z,8.83
2018-08-19T13:43:54.014Z,9.60
2018-08-19T13:46:22.992Z,9.73
2018-08-19T13:48:52.187Z,8.38
2018-08-19T13:51:21.133Z,8.23
2018-08-19T13:53:50.281Z,9.28
2018-08-19T13:56:19.261Z,8.28
2018-08-19T13:58:48.271Z,9.63
2018-08-19T14:01:17.036Z,6.00
2018-08-19T14:03:45.985Z,9.60
2018-08-19T14:06:14.913Z,6.05
2018-08-19T14:08:43.889Z,7.95
2018-08-19T14:11:12.896Z,8.25
2018-08-19T14:13:42.046Z,8.68
2018-08-19T14:16:10.980Z,7.87
2018-08-19T14:18:39.888Z,8.98
2018-08-19T14:21:08.874Z,9.33
2018-08-19T14:23:37.911Z,9.45
2018-08-19T14:26:07.226Z,9.48
2018-08-19T14:28:37.127Z,8.15
2018-08-19T14:31:06.066Z,11.10
2018-08-19T14:33:34.952Z,10.55
2018-08-19T14:36:04.216Z,10.08
2018-08-19T14:38:33.209Z,10.75
2018-08-19T14:41:02.163Z,8.85
2018-08-19T14:43:31.082Z,11.65
2018-08-19T14:46:00.068Z,10.20
2018-08-19T14:48:29.149Z,9.80
2018-08-19T14:50:58.070Z,10.03
2018-08-19T14:53:27.034Z,11.22
2018-08-19T14:56:07.515Z,10.50
2018-08-19T14:58:36.473Z,9.30
2018-08-19T15:01:05.297Z,9.50
2018-08-19T15:03:34.286Z,11.55
2018-08-19T15:06:04.250Z,12.13
2018-08-19T15:08:35.472Z,13.85
2018-08-19T15:11:05.005Z,16.87
2018-08-19T15:13:34.286Z,16.50
2018-08-19T15:16:03.264Z,16.75
2018-08-19T15:18:32.258Z,12.93
2018-08-19T15:21:01.149Z,10.70
2018-08-19T15:23:30.087Z,12.33
2018-08-19T15:25:58.974Z,13.62
2018-08-19T15:28:27.872Z,16.67
2018-08-19T15:30:56.784Z,17.10
2018-08-19T15:33:25.912Z,15.28
2018-08-19T15:35:54.862Z,20.10
2018-08-19T15:38:23.819Z,16.40
2018-08-19T15:40:52.720Z,17.50
2018-08-19T15:43:21.986Z,16.20
2018-08-19T15:45:50.981Z,17.45
2018-08-19T15:48:19.977Z,16.20
2018-08-19T15:50:51.119Z,16.77
2018-08-19T15:53:20.505Z,15.55
2018-08-19T15:55:49.474Z,15.83
2018-08-19T15:58:18.471Z,19.75
2018-08-19T16:00:46.985Z,14.93
2018-08-19T16:03:16.445Z,16.87
2018-08-19T16:05:45.402Z,13.80
2018-08-19T16:08:14.372Z,17.00
2018-08-19T16:10:43.632Z,13.08
2018-08-19T16:13:12.649Z,22.25
2018-08-19T16:15:41.915Z,15.75
2018-08-19T16:18:11.070Z,14.95
2018-08-19T16:20:40.464Z,18.25
2018-08-19T16:23:09.430Z,13.95
2018-08-19T16:25:38.395Z,20.23
2018-08-19T16:28:07.415Z,17.05
2018-08-19T16:30:36.356Z,15.72
2018-08-19T16:33:05.358Z,18.62
2018-08-19T16:35:34.282Z,16.05
2018-08-19T16:38:03.256Z,13.68
2018-08-19T16:40:32.284Z,16.90
2018-08-19T16:43:01.327Z,17.92
2018-08-19T16:45:30.877Z,18.37
2018-08-19T16:47:59.824Z,17.80
2018-08-19T16:50:28.905Z,19.67
2018-08-19T16:52:58.161Z,21.27
2018-08-19T16:55:27.124Z,17.85
2018-08-19T16:57:56.107Z,18.67
2018-08-19T17:00:25.027Z,18.65
2018-08-19T17:02:55.900Z,19.80
2018-08-19T17:05:33.048Z,15.90
2018-08-19T17:08:02.017Z,16.62
2018-08-19T17:10:31.213Z,16.73
2018-08-19T17:13:00.151Z,16.75
2018-08-19T17:15:29.427Z,17.23
2018-08-19T17:17:58.674Z,15.00
2018-08-19T17:20:27.652Z,17.65
2018-08-19T17:22:56.593Z,16.07
2018-08-19T17:25:25.691Z,11.85
2018-08-19T17:27:54.629Z,14.00
2018-08-19T17:30:23.586Z,16.10
2018-08-19T17:32:59.317Z,10.90
2018-08-19T17:35:28.441Z,13.62
2018-08-19T17:37:57.375Z,12.25
2018-08-19T17:40:26.336Z,8.95
2018-08-19T17:42:55.330Z,11.78
2018-08-19T17:45:24.238Z,9.08
2018-08-19T17:47:53.681Z,9.53
2018-08-19T17:50:25.301Z,13.48
2018-08-19T17:52:55.905Z,10.93
2018-08-19T17:55:25.308Z,9.05
2018-08-19T17:57:55.215Z,7.90
2018-08-19T18:00:24.196Z,7.83
2018-08-19T18:02:53.174Z,9.47
2018-08-19T18:05:22.469Z,7.22
2018-08-19T18:07:53.726Z,9.10
2018-08-19T18:10:22.731Z,8.45
2018-08-19T18:12:51.962Z,9.13
2018-08-19T18:15:20.912Z,9.68
2018-08-19T18:18:10.338Z,10.60
2018-08-19T18:20:40.618Z,10.00
2018-08-19T18:23:15.554Z,11.65
2018-08-19T18:25:48.615Z,7.92
2018-08-19T18:28:23.603Z,8.85
2018-08-19T18:30:59.135Z,8.48
2018-08-19T18:33:28.836Z,9.60
2018-08-19T18:35:57.849Z,7.72
2018-08-19T18:38:34.768Z,10.55
2018-08-19T18:41:04.028Z,8.55
2018-08-19T18:43:33.382Z,7.60
2018-08-19T18:46:03.530Z,8.58
2018-08-19T18:48:32.948Z,7.58
2018-08-19T18:51:02.010Z,9.83
2018-08-19T18:53:31.302Z,6.78
2018-08-19T18:56:01.460Z,10.48
2018-08-19T18:58:30.650Z,8.83
2018-08-19T19:01:02.592Z,9.10
2018-08-19T19:03:32.222Z,8.83
2018-08-19T19:06:01.214Z,8.85
2018-08-19T19:08:30.196Z,6.75
2018-08-19T19:11:07.612Z,10.15
2018-08-19T19:13:36.662Z,8.70
2018-08-19T19:16:05.756Z,7.75
2018-08-19T19:18:35.131Z,8.05
2018-08-19T19:21:05.459Z,11.22
2018-08-19T19:23:39.846Z,9.33
2018-08-19T19:26:09.328Z,7.00
2018-08-19T19:28:38.448Z,7.15
2018-08-19T19:31:14.047Z,7.60
2018-08-19T19:33:43.027Z,12.13
2018-08-19T19:36:21.759Z,7.42
2018-08-19T19:38:57.316Z,7.85
2018-08-19T19:41:31.035Z,8.83
2018-08-19T19:44:12.778Z,12.30
2018-08-19T19:46:51.079Z,9.30
2018-08-19T19:49:20.459Z,9.83
2018-08-19T19:51:55.340Z,11.00
2018-08-19T19:54:24.690Z,9.85
2018-08-19T19:56:53.985Z,7.95
2018-08-19T19:59:25.082Z,9.63
2018-08-19T20:01:54.058Z,9.60
2018-08-19T20:04:23.268Z,9.68
2018-08-19T20:06:52.912Z,9.88
2018-08-19T20:09:22.220Z,8.08
2018-08-19T20:12:01.557Z,11.40
2018-08-19T20:14:30.705Z,10.43
2018-08-19T20:17:00.022Z,7.92
2018-08-19T20:19:30.111Z,8.88
2018-08-19T20:21:59.069Z,13.72
2018-08-19T20:24:28.596Z,8.83
2018-08-19T20:26:57.551Z,11.05
2018-08-19T20:29:26.583Z,12.65
2018-08-19T20:31:55.618Z,9.95
2018-08-19T20:34:24.586Z,10.23
2018-08-19T20:37:03.047Z,9.78
2018-08-19T20:39:31.977Z,11.50
2018-08-19T20:42:04.215Z,8.90
2018-08-19T20:44:33.170Z,10.35
2018-08-19T20:47:02.167Z,10.98
2018-08-19T20:49:31.192Z,9.20
2018-08-19T20:52:00.203Z,10.25
2018-08-19T20:54:29.170Z,9.58
2018-08-19T20:57:01.263Z,8.73
2018-08-19T20:59:34.495Z,8.00
2018-08-19T21:02:04.329Z,10.03
2018-08-19T21:04:33.325Z,7.53
2018-08-19T21:07:04.285Z,9.33
2018-08-19T21:09:34.867Z,9.25
2018-08-19T21:12:04.146Z,10.08
2018-08-19T21:14:33.144Z,11.05
2018-08-19T21:17:02.796Z,11.70
2018-08-19T21:19:32.344Z,9.05
2018-08-19T21:22:01.276Z,10.28
2018-08-19T21:24:36.613Z,12.40
2018-08-19T21:27:05.606Z,8.63
2018-08-19T21:29:34.603Z,8.23
2018-08-19T21:32:03.732Z,7.83
2018-08-19T21:34:32.630Z,9.78
2018-08-19T21:37:01.686Z,9.10
2018-08-19T21:39:30.641Z,8.75
2018-08-19T21:41:59.817Z,12.70
2018-08-19T21:44:28.987Z,12.00
2018-08-19T21:46:57.903Z,11.57
2018-08-19T21:49:26.883Z,11.93
2018-08-19T21:51:56.055Z,15.65
2018-08-19T21:54:25.013Z,11.90
2018-08-19T21:56:53.982Z,10.45
2018-08-19T21:59:25.388Z,12.95
2018-08-19T22:01:58.581Z,12.03
2018-08-19T22:04:28.600Z,12.43
2018-08-19T22:06:57.762Z,9.83
2018-08-19T22:09:35.155Z,13.08
2018-08-19T22:12:05.594Z,11.80
2018-08-19T22:14:34.615Z,12.15
2018-08-19T22:17:11.441Z,15.48
2018-08-19T22:19:40.943Z,16.60
2018-08-19T22:22:10.282Z,17.70
2018-08-19T22:24:39.323Z,12.43
2018-08-19T22:27:13.630Z,13.78
2018-08-19T22:29:42.930Z,15.48
2018-08-19T22:32:12.367Z,13.25
2018-08-19T22:34:41.848Z,13.58
2018-08-19T22:37:11.019Z,11.65
2018-08-19T22:39:40.269Z,12.55
2018-08-19T22:42:09.246Z,19.62
2018-08-19T22:44:38.135Z,16.82
2018-08-19T22:47:07.044Z,14.93
2018-08-19T22:49:36.333Z,16.25
2018-08-19T22:52:18.945Z,15.88
2018-08-19T22:54:49.421Z,19.05
2018-08-19T22:57:18.341Z,17.15
2018-08-19T22:59:50.875Z,17.90
2018-08-19T23:02:20.319Z,15.00
2018-08-19T23:04:49.375Z,18.90
2018-08-19T23:07:18.562Z,18.70
2018-08-19T23:09:47.500Z,21.95
2018-08-19T23:12:16.476Z,19.92
2018-08-19T23:14:56.932Z,16.02
2018-08-19T23:17:25.872Z,19.23
2018-08-19T23:19:54.821Z,18.40
2018-08-19T23:22:23.982Z,14.95
2018-08-19T23:24:52.891Z,24.92
2018-08-19T23:27:21.821Z,18.67
2018-08-19T23:29:50.848Z,16.10
2018-08-19T23:32:19.811Z,20.95
2018-08-19T23:34:48.770Z,20.55
2018-08-19T23:37:17.722Z,17.25
2018-08-19T23:39:46.666Z,22.17
2018-08-19T23:42:15.630Z,23.65
2018-08-19T23:44:44.515Z,21.93
2018-08-19T23:47:13.439Z,19.57
2018-08-19T23:49:42.367Z,21.60
2018-08-19T23:52:11.293Z,19.48
2018-08-19T23:54:40.255Z,18.92
2018-08-19T23:57:09.121Z,17.77
2018-08-19T23:59:38.041Z,16.35
